Time;durP1;ratioP1;P1;durP2;ratioP2;P2;SDS_P1;SDS_P2;PMS_P1;PMS_P2;Temp;Humidity;BMP_temperature;BMP_pressure;BME280_temperature;BME280_humidity;BME280_pressure;Samples;Min_cycle;Max_cycle;Signal;HPM_P1;HPM_P2
2021/05/14 00:00:54;;;;;;;2.35;1.42;;;8.90;99.90;;;;;;5070414;28;20220;-72
2021/05/14 00:03:21;;;;;;;2.88;1.58;;;8.90;99.90;;;;;;5070704;28;20204;-72
2021/05/14 00:05:47;;;;;;;1.40;1.25;;;8.80;99.90;;;;;;5070820;28;20226;-72
2021/05/14 00:08:14;;;;;;;2.00;1.30;;;8.80;99.90;;;;;;5070317;28;20625;-72
2021/05/14 00:10:40;;;;;;;1.55;1.10;;;8.90;99.90;;;;;;5070511;28;20577;-72
2021/05/14 00:13:07;;;;;;;1.50;1.40;;;8.80;99.90;;;;;;5070501;28;20242;-72
2021/05/14 00:15:33;;;;;;;1.83;1.30;;;8.90;99.90;;;;;;5070469;28;20208;-72
2021/05/14 00:18:00;;;;;;;2.00;1.20;;;8.90;99.90;;;;;;5070086;28;20216;-72
2021/05/14 00:20:27;;;;;;;6.63;1.67;;;8.90;99.90;;;;;;5070094;28;20197;-72
2021/05/14 00:22:53;;;;;;;2.58;1.80;;;8.90;99.90;;;;;;5070365;28;20266;-72
2021/05/14 00:25:20;;;;;;;2.10;1.33;;;8.90;99.90;;;;;;5069917;28;20246;-72
2021/05/14 00:27:46;;;;;;;1.25;1.13;;;8.80;99.90;;;;;;5067616;28;20204;-72
2021/05/14 00:30:14;;;;;;;2.10;1.58;;;8.90;99.90;;;;;;5070279;28;20211;-72
2021/05/14 00:32:40;;;;;;;2.42;1.70;;;8.90;99.90;;;;;;5070314;28;20216;-73
2021/05/14 00:35:08;;;;;;;1.77;1.33;;;8.90;99.90;;;;;;5070019;28;20211;-72
2021/05/14 00:37:34;;;;;;;2.95;1.60;;;8.90;99.90;;;;;;5070315;28;20216;-72
2021/05/14 00:40:01;;;;;;;2.13;1.38;;;8.90;99.90;;;;;;5069927;28;20204;-72
2021/05/14 00:42:28;;;;;;;1.95;1.48;;;8.90;99.90;;;;;;5070115;28;20228;-72
2021/05/14 00:44:54;;;;;;;1.70;1.50;;;8.90;99.90;;;;;;5070131;28;20613;-72
2021/05/14 00:47:20;;;;;;;1.30;1.20;;;8.90;99.90;;;;;;5070312;28;20691;-72
2021/05/14 00:49:47;;;;;;;2.28;1.40;;;8.90;99.90;;;;;;5069892;28;20196;-72
2021/05/14 00:52:16;;;;;;;1.25;1.13;;;8.90;99.90;;;;;;5070119;28;20644;-72
2021/05/14 00:54:43;;;;;;;1.67;1.45;;;8.90;99.90;;;;;;5070044;28;20211;-73
2021/05/14 00:57:09;;;;;;;1.27;1.17;;;8.90;99.90;;;;;;5069977;28;20211;-72
2021/05/14 00:59:37;;;;;;;3.35;1.45;;;8.80;99.90;;;;;;5069807;28;20292;-72
2021/05/14 01:02:05;;;;;;;1.23;1.13;;;8.80;99.90;;;;;;5071502;28;20220;-72
2021/05/14 01:04:31;;;;;;;2.55;1.60;;;8.80;99.90;;;;;;5073685;28;20197;-72
2021/05/14 01:06:58;;;;;;;1.50;1.40;;;8.80;99.90;;;;;;5073481;28;20215;-72
2021/05/14 01:09:24;;;;;;;2.22;1.63;;;8.80;99.90;;;;;;5073382;28;20979;-72
2021/05/14 01:11:50;;;;;;;1.60;1.50;;;8.80;99.90;;;;;;5073240;28;20216;-73
2021/05/14 01:14:16;;;;;;;3.40;1.52;;;8.80;99.90;;;;;;5073579;28;20201;-72
2021/05/14 01:16:44;;;;;;;1.60;1.50;;;8.80;99.90;;;;;;5073470;28;20200;-73
2021/05/14 01:19:10;;;;;;;1.67;1.35;;;8.70;99.90;;;;;;5073045;28;20205;-73
2021/05/14 01:21:37;;;;;;;2.75;1.60;;;8.70;99.90;;;;;;5073124;28;20756;-72
2021/05/14 01:24:05;;;;;;;1.58;1.48;;;8.70;99.90;;;;;;5073191;28;20213;-73
2021/05/14 01:26:31;;;;;;;2.00;1.40;;;8.60;99.90;;;;;;5073368;28;20201;-72
2021/05/14 01:28:59;;;;;;;2.47;1.65;;;8.60;99.90;;;;;;5072685;28;20200;-72
2021/05/14 01:31:25;;;;;;;1.75;1.50;;;8.50;99.90;;;;;;5073088;28;20222;-72
2021/05/14 01:33:52;;;;;;;1.50;1.40;;;8.50;99.90;;;;;;5072961;28;20204;-72
2021/05/14 01:36:18;;;;;;;2.35;1.23;;;8.50;99.90;;;;;;5073063;28;20689;-73
2021/05/14 01:38:46;;;;;;;3.25;1.58;;;8.50;99.90;;;;;;5072826;28;20273;-73
2021/05/14 01:41:12;;;;;;;2.55;1.40;;;8.40;99.90;;;;;;5072868;28;20216;-73
2021/05/14 01:43:39;;;;;;;1.40;1.20;;;8.40;99.90;;;;;;5073053;28;20254;-72
2021/05/14 01:46:06;;;;;;;2.33;1.60;;;8.30;99.90;;;;;;5072823;28;20200;-72
2021/05/14 01:48:33;;;;;;;1.77;1.63;;;8.30;99.90;;;;;;5072572;28;20204;-73
2021/05/14 01:51:04;;;;;;;2.03;1.67;;;8.20;99.90;;;;;;5072738;28;20228;-72
2021/05/14 01:53:30;;;;;;;1.50;1.40;;;8.20;99.90;;;;;;5072916;28;20200;-73
2021/05/14 01:55:57;;;;;;;1.85;1.40;;;8.20;99.90;;;;;;5072761;28;20230;-73
2021/05/14 01:58:23;;;;;;;2.30;1.42;;;8.00;99.90;;;;;;5072576;28;20197;-73
2021/05/14 02:00:50;;;;;;;3.20;1.63;;;8.00;99.90;;;;;;5072517;28;20682;-72
2021/05/14 02:03:16;;;;;;;1.50;1.40;;;7.90;99.90;;;;;;5072520;28;20225;-72
2021/05/14 02:05:42;;;;;;;3.28;1.88;;;8.00;99.90;;;;;;5072587;28;20625;-72
2021/05/14 02:08:08;;;;;;;1.60;1.40;;;8.00;99.90;;;;;;5072106;28;20204;-72
2021/05/14 02:10:35;;;;;;;4.85;2.05;;;8.00;99.90;;;;;;5072535;28;20226;-73
2021/05/14 02:13:02;;;;;;;4.82;1.92;;;8.00;99.90;;;;;;5071474;28;20196;-72
2021/05/14 02:15:28;;;;;;;1.52;1.30;;;7.90;99.90;;;;;;5072467;28;20205;-72
2021/05/14 02:17:54;;;;;;;3.20;1.90;;;7.80;99.90;;;;;;5071930;28;20208;-73
2021/05/14 02:20:20;;;;;;;2.22;1.75;;;7.80;99.90;;;;;;5072285;28;20212;-74
2021/05/14 02:22:47;;;;;;;3.38;1.95;;;7.70;99.90;;;;;;5072199;28;20243;-72
2021/05/14 02:25:13;;;;;;;3.78;1.80;;;7.70;99.90;;;;;;5072199;28;20664;-72
2021/05/14 02:27:39;;;;;;;2.47;1.70;;;7.70;99.90;;;;;;5072028;28;20207;-72
2021/05/14 02:30:09;;;;;;;4.55;2.25;;;7.60;99.90;;;;;;5071918;28;20219;-73
2021/05/14 02:32:36;;;;;;;1.67;1.45;;;7.60;99.90;;;;;;5072066;28;20224;-72
2021/05/14 02:35:03;;;;;;;3.47;1.83;;;7.60;99.90;;;;;;5071842;28;20215;-73
2021/05/14 02:37:29;;;;;;;1.95;1.75;;;7.60;99.90;;;;;;5071980;28;20213;-72
2021/05/14 02:39:55;;;;;;;3.38;1.90;;;7.60;99.90;;;;;;5071639;28;20274;-72
2021/05/14 02:42:21;;;;;;;2.22;1.70;;;7.60;99.90;;;;;;5071832;28;20672;-72
2021/05/14 02:44:48;;;;;;;1.70;1.60;;;7.60;99.90;;;;;;5071697;28;20212;-72
2021/05/14 02:47:15;;;;;;;1.60;1.50;;;7.50;99.90;;;;;;5071697;28;20204;-73
2021/05/14 02:49:41;;;;;;;1.83;1.48;;;7.50;99.90;;;;;;5071301;28;20208;-72
2021/05/14 02:52:08;;;;;;;1.60;1.50;;;7.50;99.90;;;;;;5071469;28;20217;-72
2021/05/14 02:54:35;;;;;;;1.63;1.40;;;7.50;99.90;;;;;;5071669;28;20200;-72
2021/05/14 02:57:02;;;;;;;1.52;1.42;;;7.50;99.90;;;;;;5071392;28;20702;-72
2021/05/14 02:59:29;;;;;;;3.75;1.60;;;7.50;99.90;;;;;;5071325;28;20200;-73
2021/05/14 03:01:55;;;;;;;1.40;1.30;;;7.50;99.90;;;;;;5071127;28;20232;-72
2021/05/14 03:04:22;;;;;;;1.80;1.70;;;7.40;99.90;;;;;;5071433;28;20208;-73
2021/05/14 03:06:48;;;;;;;1.83;1.45;;;7.40;99.90;;;;;;5071343;28;20200;-72
2021/05/14 03:09:15;;;;;;;1.30;1.20;;;7.40;99.90;;;;;;5071055;28;20207;-71
2021/05/14 03:11:41;;;;;;;2.10;1.75;;;7.30;99.90;;;;;;5071406;28;20216;-72
2021/05/14 03:14:07;;;;;;;2.65;1.70;;;7.30;99.90;;;;;;5071191;28;20215;-71
2021/05/14 03:16:34;;;;;;;2.45;2.22;;;7.30;99.90;;;;;;5071263;28;20233;-72
2021/05/14 03:19:00;;;;;;;1.75;1.65;;;7.30;99.90;;;;;;5070682;28;20200;-72
2021/05/14 03:21:30;;;;;;;2.03;1.83;;;7.30;99.90;;;;;;5071060;28;20239;-72
2021/05/14 03:23:56;;;;;;;2.50;2.13;;;7.20;99.90;;;;;;5071481;28;20200;-72
2021/05/14 03:26:22;;;;;;;1.92;1.70;;;7.20;99.90;;;;;;5071258;28;20209;-72
2021/05/14 03:28:49;;;;;;;1.95;1.67;;;7.10;99.90;;;;;;5070706;28;20200;-72
2021/05/14 03:31:15;;;;;;;1.92;1.63;;;7.10;99.90;;;;;;5070771;28;20224;-72
2021/05/14 03:33:41;;;;;;;2.90;1.52;;;7.00;99.90;;;;;;5071000;28;20200;-73
2021/05/14 03:36:08;;;;;;;2.20;1.80;;;7.00;99.90;;;;;;5070781;28;20216;-74
2021/05/14 03:38:35;;;;;;;1.85;1.48;;;7.00;99.90;;;;;;5070632;28;20207;-73
2021/05/14 03:41:03;;;;;;;1.95;1.77;;;6.90;99.90;;;;;;5070810;28;20221;-72
2021/05/14 03:43:30;;;;;;;1.95;1.75;;;7.00;99.90;;;;;;5070880;28;20216;-72
2021/05/14 03:45:56;;;;;;;2.05;1.80;;;6.90;99.90;;;;;;5070637;28;20209;-74
2021/05/14 03:48:23;;;;;;;3.83;1.63;;;6.90;99.90;;;;;;5070750;28;20596;-73
2021/05/14 03:50:52;;;;;;;2.10;1.55;;;6.90;99.90;;;;;;5070841;28;20220;-72
2021/05/14 03:53:19;;;;;;;1.67;1.52;;;6.90;99.90;;;;;;5070703;28;20219;-72
2021/05/14 03:55:46;;;;;;;2.03;1.60;;;6.90;99.90;;;;;;5070779;28;20219;-73
2021/05/14 03:58:12;;;;;;;2.67;1.73;;;6.90;99.90;;;;;;5070510;28;20573;-74
2021/05/14 04:00:39;;;;;;;2.70;1.40;;;6.90;99.90;;;;;;5070631;28;20231;-72
2021/05/14 04:03:05;;;;;;;1.65;1.50;;;6.90;99.90;;;;;;5070813;28;20224;-72
2021/05/14 04:05:33;;;;;;;2.20;1.50;;;6.90;99.90;;;;;;5070919;28;20223;-72
2021/05/14 04:08:00;;;;;;;2.03;1.52;;;6.90;99.90;;;;;;5070366;28;20712;-73
2021/05/14 04:10:36;;;;;;;1.63;1.52;;;6.90;99.90;;;;;;5070562;28;20570;-74
2021/05/14 04:15:53;;;;;;;1.70;1.60;;;6.90;99.90;;;;;;5070748;28;20208;-70
2021/05/14 04:18:20;;;;;;;2.20;1.60;;;6.90;99.90;;;;;;5070373;28;20196;-71
2021/05/14 04:20:46;;;;;;;3.70;1.67;;;6.80;99.90;;;;;;5070519;28;20235;-71
2021/05/14 04:23:12;;;;;;;1.85;1.50;;;6.80;99.90;;;;;;5070318;28;20597;-72
2021/05/14 04:25:39;;;;;;;1.98;1.48;;;6.90;99.90;;;;;;5070566;28;20207;-71
2021/05/14 04:28:06;;;;;;;2.70;1.70;;;6.90;99.90;;;;;;5069877;28;20204;-71
2021/05/14 04:30:33;;;;;;;1.95;1.70;;;6.90;99.90;;;;;;5070534;28;20210;-71
2021/05/14 04:32:59;;;;;;;3.40;1.50;;;6.90;99.90;;;;;;5070304;28;20196;-71
2021/05/14 04:35:26;;;;;;;1.50;1.40;;;7.00;99.90;;;;;;5070383;28;20204;-72
2021/05/14 04:37:52;;;;;;;2.30;1.67;;;7.00;99.90;;;;;;5073161;28;20208;-71
2021/05/14 04:40:18;;;;;;;3.72;1.70;;;7.00;99.90;;;;;;5074229;28;20624;-70
2021/05/14 04:42:45;;;;;;;1.75;1.60;;;7.10;99.90;;;;;;5074208;28;20228;-71
2021/05/14 04:45:13;;;;;;;1.50;1.40;;;7.10;99.90;;;;;;5074262;28;20593;-71
2021/05/14 04:47:40;;;;;;;3.40;1.90;;;7.10;99.90;;;;;;5073988;28;20204;-70
2021/05/14 04:50:07;;;;;;;2.40;1.45;;;7.20;99.90;;;;;;5073968;28;20200;-71
2021/05/14 04:52:35;;;;;;;3.88;2.00;;;7.20;99.90;;;;;;5074039;28;20222;-71
2021/05/14 04:55:01;;;;;;;1.63;1.50;;;7.30;99.90;;;;;;5073889;28;20676;-71
2021/05/14 04:57:27;;;;;;;1.58;1.48;;;7.30;99.90;;;;;;5073906;28;20204;-72
2021/05/14 04:59:53;;;;;;;2.00;1.67;;;7.40;99.90;;;;;;5073490;28;20798;-70
2021/05/14 05:02:20;;;;;;;3.17;1.75;;;7.50;99.90;;;;;;5073718;28;20228;-72
2021/05/14 05:04:46;;;;;;;1.65;1.50;;;7.50;99.90;;;;;;5073729;28;20200;-71
2021/05/14 05:07:13;;;;;;;2.92;1.60;;;7.60;99.90;;;;;;5073810;28;20625;-71
2021/05/14 05:09:39;;;;;;;2.65;1.55;;;7.60;99.90;;;;;;5073472;28;20200;-71
2021/05/14 05:12:06;;;;;;;2.58;1.65;;;7.70;99.90;;;;;;5072463;28;20216;-71
2021/05/14 05:14:32;;;;;;;1.85;1.33;;;7.80;99.90;;;;;;5073448;28;20757;-71
2021/05/14 05:16:58;;;;;;;1.88;1.30;;;7.80;99.90;;;;;;5073442;28;20196;-71
2021/05/14 05:19:25;;;;;;;1.88;1.30;;;8.00;99.90;;;;;;5073135;28;20273;-71
2021/05/14 05:21:51;;;;;;;1.60;1.50;;;8.10;99.90;;;;;;5073100;28;20228;-71
2021/05/14 05:24:18;;;;;;;2.65;1.63;;;8.10;99.90;;;;;;5073415;28;20208;-70
2021/05/14 05:26:44;;;;;;;1.60;1.50;;;8.20;99.90;;;;;;5073108;28;20212;-70
2021/05/14 05:29:10;;;;;;;2.05;1.67;;;8.30;99.90;;;;;;5073055;28;20204;-70
2021/05/14 05:31:36;;;;;;;2.20;1.48;;;8.30;99.90;;;;;;5072950;28;20715;-71
2021/05/14 05:34:03;;;;;;;1.80;1.35;;;8.40;99.90;;;;;;5073277;28;20200;-70
2021/05/14 05:36:30;;;;;;;2.28;1.40;;;8.50;99.90;;;;;;5072994;28;20208;-70
2021/05/14 05:38:56;;;;;;;2.20;1.65;;;8.60;99.90;;;;;;5072978;28;20572;-71
2021/05/14 05:41:23;;;;;;;1.80;1.58;;;8.60;99.90;;;;;;5073149;28;20554;-68
2021/05/14 05:43:49;;;;;;;1.90;1.20;;;8.70;99.90;;;;;;5074398;28;20227;-69
2021/05/14 05:46:15;;;;;;;2.65;1.27;;;8.70;99.90;;;;;;5074229;28;20204;-68
2021/05/14 05:48:45;;;;;;;1.63;1.52;;;8.70;99.90;;;;;;5073189;28;20265;-69
2021/05/14 05:51:12;;;;;;;3.00;1.65;;;8.80;99.90;;;;;;5074440;28;20216;-69
2021/05/14 05:53:39;;;;;;;2.00;1.48;;;8.90;99.90;;;;;;5074600;28;20200;-69
2021/05/14 05:56:05;;;;;;;2.55;1.30;;;8.90;99.90;;;;;;5072022;28;20675;-68
2021/05/14 05:58:32;;;;;;;1.67;1.35;;;9.00;99.90;;;;;;5072487;28;20200;-69
2021/05/14 06:00:59;;;;;;;1.50;1.38;;;9.10;99.90;;;;;;5070854;28;20220;-68
2021/05/14 06:03:25;;;;;;;2.65;1.65;;;9.20;99.90;;;;;;5072829;28;20228;-68
2021/05/14 06:05:52;;;;;;;1.67;1.38;;;9.30;99.90;;;;;;5074536;28;20204;-68
2021/05/14 06:08:18;;;;;;;2.10;1.40;;;9.40;99.90;;;;;;5073392;28;20207;-69
2021/05/14 06:10:51;;;;;;;2.10;1.30;;;9.50;99.90;;;;;;5073671;28;20235;-69
2021/05/14 06:13:17;;;;;;;1.65;1.38;;;9.60;99.90;;;;;;5073117;28;20272;-68
2021/05/14 06:15:44;;;;;;;1.67;1.20;;;9.70;99.90;;;;;;5073464;28;20207;-69
2021/05/14 06:18:12;;;;;;;1.60;1.25;;;9.80;99.90;;;;;;5073411;28;20586;-69
2021/05/14 06:20:41;;;;;;;2.15;1.20;;;9.90;99.90;;;;;;5074758;28;20236;-71
2021/05/14 06:23:08;;;;;;;2.45;1.25;;;10.00;99.90;;;;;;5080988;28;20287;-70
2021/05/14 06:25:35;;;;;;;1.50;1.40;;;10.10;99.90;;;;;;5080453;28;20208;-69
2021/05/14 06:28:02;;;;;;;1.65;1.20;;;10.20;99.90;;;;;;5077646;28;20233;-69
2021/05/14 06:30:28;;;;;;;1.13;1.02;;;10.30;99.90;;;;;;5077262;28;20236;-69
2021/05/14 06:32:54;;;;;;;1.13;0.95;;;10.40;99.90;;;;;;5075272;28;20203;-69
2021/05/14 06:35:21;;;;;;;1.55;1.20;;;10.50;99.90;;;;;;5076823;28;20200;-68
2021/05/14 06:37:48;;;;;;;1.75;1.25;;;10.60;99.90;;;;;;5076267;28;20269;-68
2021/05/14 06:40:15;;;;;;;2.25;1.27;;;10.70;99.90;;;;;;5075723;28;20204;-69
2021/05/14 06:42:41;;;;;;;1.00;0.85;;;10.80;99.90;;;;;;5077384;28;20633;-68
2021/05/14 06:45:09;;;;;;;1.90;1.10;;;10.90;99.90;;;;;;5076174;28;20204;-69
2021/05/14 06:47:36;;;;;;;1.20;1.00;;;11.00;99.90;;;;;;5076236;28;20211;-68
2021/05/14 06:50:04;;;;;;;1.75;1.38;;;11.10;99.90;;;;;;5077103;28;20232;-68
2021/05/14 06:52:31;;;;;;;1.08;0.93;;;11.30;99.90;;;;;;5076326;28;20311;-69
2021/05/14 06:54:57;;;;;;;1.00;0.90;;;11.40;99.90;;;;;;5075636;28;20209;-69
2021/05/14 06:57:24;;;;;;;1.08;0.95;;;11.40;99.90;;;;;;5074834;28;20208;-68
2021/05/14 06:59:50;;;;;;;0.98;0.82;;;11.60;99.90;;;;;;5073957;28;20200;-69
2021/05/14 07:02:17;;;;;;;4.38;1.27;;;11.60;99.90;;;;;;5068672;28;20224;-68
2021/05/14 07:04:43;;;;;;;1.00;0.80;;;11.70;99.90;;;;;;5070536;28;20686;-69
2021/05/14 07:07:09;;;;;;;1.80;1.20;;;11.90;99.90;;;;;;5071712;28;20253;-69
2021/05/14 07:09:36;;;;;;;1.00;0.90;;;12.00;99.90;;;;;;5065417;28;20193;-68
2021/05/14 07:12:02;;;;;;;1.75;1.02;;;12.10;99.90;;;;;;5070007;28;20217;-68
2021/05/14 07:14:29;;;;;;;1.45;0.82;;;12.10;99.90;;;;;;5068268;28;20196;-68
2021/05/14 07:16:55;;;;;;;1.95;1.00;;;12.20;99.90;;;;;;5066948;28;20201;-68
2021/05/14 07:19:22;;;;;;;1.48;1.00;;;12.30;99.90;;;;;;5067234;28;20223;-67
2021/05/14 07:21:48;;;;;;;1.10;0.70;;;12.30;99.90;;;;;;5069343;28;20224;-68
2021/05/14 07:24:15;;;;;;;1.75;0.90;;;12.40;99.90;;;;;;5069057;28;20200;-69
2021/05/14 07:26:41;;;;;;;1.27;0.90;;;12.50;99.90;;;;;;5069714;28;20211;-69
2021/05/14 07:29:07;;;;;;;1.30;1.05;;;12.60;99.90;;;;;;5068637;28;20212;-68
2021/05/14 07:31:34;;;;;;;1.63;1.00;;;12.80;99.90;;;;;;5069519;28;20718;-69
2021/05/14 07:34:00;;;;;;;1.77;0.93;;;12.90;99.90;;;;;;5068230;28;20214;-68
2021/05/14 07:36:27;;;;;;;1.27;0.95;;;13.00;99.90;;;;;;5070193;28;20205;-68
2021/05/14 07:38:54;;;;;;;1.38;0.98;;;13.10;99.90;;;;;;5069815;28;20901;-68
2021/05/14 07:41:21;;;;;;;1.40;0.95;;;13.10;99.90;;;;;;5071431;28;20228;-69
2021/05/14 07:43:47;;;;;;;3.28;1.00;;;13.20;99.90;;;;;;5070803;28;20235;-67
2021/05/14 07:46:13;;;;;;;0.80;0.70;;;13.20;99.90;;;;;;5070288;28;20219;-68
2021/05/14 07:48:40;;;;;;;0.82;0.70;;;13.10;99.90;;;;;;5071249;28;20207;-69
2021/05/14 07:51:06;;;;;;;1.42;0.80;;;13.00;99.90;;;;;;5070071;28;20266;-68
2021/05/14 07:53:33;;;;;;;1.40;1.00;;;13.00;99.90;;;;;;5071092;28;20197;-68
2021/05/14 07:56:00;;;;;;;0.90;0.70;;;13.10;99.90;;;;;;5070287;28;20831;-68
2021/05/14 07:58:26;;;;;;;1.10;0.90;;;13.20;99.90;;;;;;5069251;28;20212;-69
2021/05/14 08:00:53;;;;;;;1.43;1.00;;;13.40;99.90;;;;;;5070279;28;20220;-69
2021/05/14 08:03:19;;;;;;;1.10;0.80;;;13.60;99.90;;;;;;5069650;28;21131;-68
2021/05/14 08:05:47;;;;;;;1.00;0.90;;;13.90;99.90;;;;;;5069924;28;20458;-68
2021/05/14 08:08:14;;;;;;;1.23;0.93;;;14.20;99.90;;;;;;5069365;28;20462;-68
2021/05/14 08:10:42;;;;;;;0.90;0.80;;;14.40;99.90;;;;;;5069184;28;20494;-68
2021/05/14 08:13:08;;;;;;;1.10;0.80;;;14.30;99.90;;;;;;5071502;28;20473;-69
2021/05/14 08:15:35;;;;;;;2.13;0.90;;;14.30;99.90;;;;;;5075694;28;20459;-70
2021/05/14 08:18:01;;;;;;;1.50;0.97;;;14.20;99.90;;;;;;5074012;28;20458;-70
2021/05/14 08:20:28;;;;;;;1.27;0.83;;;14.20;99.90;;;;;;5074881;28;20454;-70
2021/05/14 08:22:54;;;;;;;1.30;1.00;;;14.30;99.90;;;;;;5074405;28;20486;-70
2021/05/14 08:25:20;;;;;;;1.77;0.80;;;14.40;99.90;;;;;;5073280;28;20459;-70
2021/05/14 08:27:48;;;;;;;2.37;1.10;;;14.50;99.90;;;;;;5071517;28;20455;-70
2021/05/14 08:30:15;;;;;;;1.00;0.90;;;14.60;99.90;;;;;;5069861;28;20458;-69
2021/05/14 08:32:42;;;;;;;3.53;1.00;;;14.70;99.90;;;;;;5071102;28;20531;-69
2021/05/14 08:35:10;;;;;;;1.27;0.93;;;14.70;99.90;;;;;;5071790;28;20466;-69
2021/05/14 08:37:37;;;;;;;1.73;0.80;;;14.70;99.90;;;;;;5071822;28;20468;-69
2021/05/14 08:40:05;;;;;;;1.83;1.10;;;15.00;99.90;;;;;;5072355;28;20490;-69
2021/05/14 08:42:31;;;;;;;2.07;0.90;;;15.10;99.60;;;;;;5072200;28;20490;-69
2021/05/14 08:44:58;;;;;;;1.50;0.90;;;15.30;99.90;;;;;;5071749;28;20463;-70
2021/05/14 08:47:25;;;;;;;1.00;0.80;;;15.50;99.90;;;;;;5071234;28;20467;-68
2021/05/14 08:49:51;;;;;;;2.37;1.10;;;15.80;99.40;;;;;;5070850;28;20458;-69
2021/05/14 08:52:18;;;;;;;1.20;1.10;;;16.00;99.90;;;;;;5069916;28;21362;-69
2021/05/14 08:54:47;;;;;;;1.70;1.10;;;16.10;99.80;;;;;;5071926;28;20969;-69
2021/05/14 08:57:13;;;;;;;1.30;1.05;;;16.00;99.10;;;;;;5054914;28;20487;-69
2021/05/14 08:59:40;;;;;;;1.47;0.90;;;15.90;98.30;;;;;;5067799;28;20209;-70
2021/05/14 09:02:07;;;;;;;2.20;1.00;;;15.80;98.00;;;;;;5068706;28;20491;-71
2021/05/14 09:04:34;;;;;;;1.70;1.00;;;15.80;98.60;;;;;;5068348;28;20465;-70
2021/05/14 09:07:12;;;;;;;1.93;1.00;;;15.90;98.60;;;;;;5068036;28;20458;-70
2021/05/14 09:09:38;;;;;;;2.33;1.20;;;16.10;99.70;;;;;;5059355;28;20456;-70
2021/05/14 09:12:04;;;;;;;1.10;0.90;;;16.20;96.30;;;;;;5068336;28;20527;-70
2021/05/14 09:14:36;;;;;;;1.50;1.03;;;16.30;99.40;;;;;;5063991;28;20469;-70
2021/05/14 09:17:08;;;;;;;1.73;0.90;;;16.30;95.60;;;;;;5060672;28;20462;-70
2021/05/14 09:19:35;;;;;;;2.60;1.10;;;16.30;96.50;;;;;;5059700;28;20817;-71
2021/05/14 09:22:13;;;;;;;1.53;1.23;;;16.20;97.50;;;;;;5064473;28;20490;-71
2021/05/14 09:24:41;;;;;;;3.47;1.00;;;16.60;98.70;;;;;;5068687;28;20473;-70
2021/05/14 09:27:28;;;;;;;1.77;0.90;;;16.90;99.20;;;;;;5067943;28;20846;-71
2021/05/14 09:29:57;;;;;;;1.20;1.10;;;17.20;99.20;;;;;;5068738;28;20520;-71
2021/05/14 09:32:26;;;;;;;1.50;1.00;;;17.60;99.00;;;;;;5053075;28;20479;-71
2021/05/14 09:34:55;;;;;;;1.33;0.90;;;17.60;98.20;;;;;;5050058;28;20517;-70
2021/05/14 09:37:23;;;;;;;1.40;1.00;;;17.40;99.00;;;;;;5049492;28;20526;-70
2021/05/14 09:39:50;;;;;;;1.00;0.80;;;17.10;99.70;;;;;;5049082;28;20469;-70
2021/05/14 09:42:31;;;;;;;2.27;1.10;;;16.90;99.20;;;;;;5048412;28;20978;-70
2021/05/14 09:45:16;;;;;;;1.27;1.00;;;16.70;99.20;;;;;;5048258;28;20467;-70
2021/05/14 09:47:44;;;;;;;1.70;0.90;;;16.30;98.50;;;;;;5048829;28;20463;-71
2021/05/14 09:50:29;;;;;;;2.00;1.00;;;16.00;98.80;;;;;;5048490;28;20455;-71
2021/05/14 09:53:12;;;;;;;1.17;1.07;;;15.90;98.60;;;;;;5047677;28;20501;-71
2021/05/14 09:55:40;;;;;;;2.17;1.00;;;15.70;99.40;;;;;;5048413;28;20455;-70
2021/05/14 09:58:18;;;;;;;1.47;1.00;;;15.60;99.20;;;;;;5049088;28;20547;-71
2021/05/14 10:00:44;;;;;;;3.40;1.43;;;15.50;99.50;;;;;;5049616;28;20487;-69
2021/05/14 10:03:14;;;;;;;3.03;0.93;;;15.50;99.90;;;;;;5048780;28;20840;-70
2021/05/14 10:05:41;;;;;;;1.00;0.90;;;15.30;99.90;;;;;;5048960;28;20544;-70
2021/05/14 10:08:07;;;;;;;1.40;1.05;;;15.30;99.90;;;;;;5048076;28;20459;-68
2021/05/14 10:10:35;;;;;;;0.93;0.83;;;15.20;99.30;;;;;;5052270;28;20201;-70
2021/05/14 10:13:03;;;;;;;1.53;1.10;;;15.10;99.90;;;;;;5056822;28;20468;-70
2021/05/14 10:15:31;;;;;;;1.10;0.90;;;15.00;99.90;;;;;;5075912;28;20458;-69
2021/05/14 10:17:59;;;;;;;2.23;1.00;;;14.90;99.30;;;;;;5076870;28;20468;-70
2021/05/14 10:20:30;;;;;;;1.70;1.10;;;14.90;99.10;;;;;;5072715;28;20463;-68
2021/05/14 10:22:58;;;;;;;1.93;1.10;;;14.90;99.90;;;;;;5074154;28;20483;-69
2021/05/14 10:25:43;;;;;;;1.37;0.90;;;14.90;99.10;;;;;;5075555;28;20839;-69
2021/05/14 10:28:10;;;;;;;1.87;0.90;;;14.90;97.60;;;;;;5077005;28;20462;-69
2021/05/14 10:30:37;;;;;;;1.30;1.00;;;14.90;97.90;;;;;;5074907;28;20459;-70
2021/05/14 10:33:06;;;;;;;1.83;1.00;;;14.70;98.60;;;;;;5073152;28;20454;-69
2021/05/14 10:35:34;;;;;;;1.20;1.00;;;14.60;98.40;;;;;;5069788;28;20821;-68
2021/05/14 10:38:05;;;;;;;2.03;1.17;;;14.70;99.50;;;;;;5069413;28;21087;-69
2021/05/14 10:40:43;;;;;;;3.03;1.40;;;14.90;99.90;;;;;;5069492;28;21077;-69
2021/05/14 10:43:12;;;;;;;1.40;1.00;;;15.20;99.80;;;;;;5069940;28;20474;-67
2021/05/14 10:45:39;;;;;;;1.93;1.13;;;15.50;99.90;;;;;;5067479;28;20553;-70
2021/05/14 10:48:16;;;;;;;1.40;0.80;;;16.10;99.90;;;;;;5068897;28;20463;-70
2021/05/14 10:50:45;;;;;;;1.80;1.00;;;17.00;99.90;;;;;;5066984;28;20505;-69
2021/05/14 10:53:33;;;;;;;2.23;1.10;;;17.80;99.50;;;;;;5069412;28;20447;-68
2021/05/14 10:56:27;;;;;;;1.50;1.00;;;18.10;98.20;;;;;;5067381;28;20491;-69
2021/05/14 10:59:06;;;;;;;1.60;0.80;;;17.90;97.40;;;;;;5068604;28;20920;-69
2021/05/14 11:01:34;;;;;;;1.10;0.80;;;17.50;97.10;;;;;;5068974;28;21247;-68
2021/05/14 11:04:02;;;;;;;1.60;0.90;;;17.50;97.10;;;;;;5069130;28;20910;-68
2021/05/14 11:06:40;;;;;;;1.40;1.00;;;17.90;98.30;;;;;;5068234;28;20923;-68
2021/05/14 11:09:07;;;;;;;1.20;1.10;;;18.30;97.40;;;;;;5067381;28;20466;-68
2021/05/14 11:11:34;;;;;;;1.40;0.87;;;18.50;97.20;;;;;;5068626;28;20483;-68
2021/05/14 11:14:16;;;;;;;1.33;1.20;;;18.30;97.40;;;;;;5068763;28;20898;-68
2021/05/14 11:16:44;;;;;;;1.47;1.03;;;17.90;97.50;;;;;;5068852;28;20469;-68
2021/05/14 11:19:21;;;;;;;1.63;1.53;;;17.50;99.10;;;;;;5068430;28;20540;-68
2021/05/14 11:22:10;;;;;;;1.50;1.10;;;17.10;99.90;;;;;;5067761;28;20638;-69
2021/05/14 11:24:39;;;;;;;1.70;1.10;;;17.10;99.90;;;;;;5063850;28;20508;-68
2021/05/14 11:27:09;;;;;;;1.00;0.90;;;17.60;99.90;;;;;;5068622;28;20455;-67
2021/05/14 11:29:37;;;;;;;1.10;0.90;;;18.30;99.90;;;;;;5068117;28;20971;-68
2021/05/14 11:32:15;;;;;;;1.87;1.20;;;19.00;99.90;;;;;;5068626;28;20482;-67
2021/05/14 11:35:10;;;;;;;2.20;1.20;;;19.40;99.60;;;;;;5053653;28;20467;-69
2021/05/14 11:37:39;;;;;;;1.17;0.90;;;20.00;98.70;;;;;;5031720;28;20467;-68
2021/05/14 11:40:08;;;;;;;1.23;0.93;;;20.50;98.00;;;;;;5049101;28;20510;-68
2021/05/14 11:42:39;;;;;;;1.47;0.83;;;20.90;97.70;;;;;;5048622;28;21215;-69
2021/05/14 11:45:07;;;;;;;1.40;1.10;;;21.20;96.80;;;;;;5060544;28;20458;-68
2021/05/14 11:47:34;;;;;;;1.10;0.90;;;21.30;96.70;;;;;;5075065;28;20459;-68
2021/05/14 11:50:01;;;;;;;1.33;1.00;;;21.30;95.10;;;;;;5062491;28;20455;-68
2021/05/14 11:52:34;;;;;;;1.20;0.93;;;21.00;95.10;;;;;;5070825;28;20504;-68
2021/05/14 11:55:07;;;;;;;1.10;0.90;;;20.90;95.00;;;;;;5071340;28;20516;-68
2021/05/14 11:57:33;;;;;;;1.87;1.30;;;21.00;96.70;;;;;;5069709;28;20465;-68
2021/05/14 12:00:00;;;;;;;1.60;0.90;;;21.60;95.80;;;;;;5070215;28;20543;-68
2021/05/14 12:02:36;;;;;;;1.87;1.10;;;22.20;94.50;;;;;;5071119;28;20494;-68
2021/05/14 12:05:04;;;;;;;2.93;0.80;;;22.50;92.10;;;;;;5069785;28;20458;-68
2021/05/14 12:07:30;;;;;;;1.70;0.97;;;22.30;91.50;;;;;;5070062;28;20462;-68
2021/05/14 12:10:00;;;;;;;1.23;0.83;;;21.90;93.40;;;;;;5068738;28;20976;-68
2021/05/14 12:12:27;;;;;;;3.20;1.10;;;21.10;93.20;;;;;;5054404;28;20486;-68
2021/05/14 12:15:16;;;;;;;1.23;0.90;;;20.70;93.10;;;;;;5060496;28;20458;-70
2021/05/14 12:17:42;;;;;;;1.47;1.00;;;20.10;93.00;;;;;;5068047;28;20462;-71
2021/05/14 12:20:23;;;;;;;2.23;1.07;;;19.80;94.00;;;;;;5068482;28;20466;-68
2021/05/14 12:22:51;;;;;;;1.60;1.27;;;19.70;94.70;;;;;;5067378;28;20482;-67
2021/05/14 12:25:18;;;;;;;1.73;0.90;;;19.90;95.30;;;;;;5067121;28;20458;-68
2021/05/14 12:27:45;;;;;;;2.20;0.90;;;20.60;95.00;;;;;;5067580;28;20536;-68
2021/05/14 12:30:14;;;;;;;1.40;0.90;;;21.30;94.30;;;;;;5068178;28;20603;-68
2021/05/14 12:32:40;;;;;;;2.40;1.03;;;21.80;94.10;;;;;;5068360;28;20481;-69
2021/05/14 12:35:08;;;;;;;3.07;0.90;;;21.80;92.70;;;;;;5066439;28;20462;-69
2021/05/14 12:37:35;;;;;;;1.23;1.10;;;21.10;91.90;;;;;;5067931;28;20841;-69
2021/05/14 12:40:01;;;;;;;2.03;1.10;;;20.60;92.70;;;;;;5068654;28;20466;-69
2021/05/14 12:42:29;;;;;;;0.93;0.83;;;20.10;91.90;;;;;;5068120;28;20563;-68
2021/05/14 12:44:59;;;;;;;2.50;1.00;;;19.80;90.30;;;;;;5067692;28;20817;-69
2021/05/14 12:47:28;;;;;;;2.10;1.10;;;19.60;90.80;;;;;;5065006;28;20490;-70
2021/05/14 12:49:58;;;;;;;1.10;1.00;;;19.40;91.20;;;;;;5064302;28;20550;-69
2021/05/14 12:52:26;;;;;;;2.57;1.00;;;19.30;92.20;;;;;;5057108;28;20479;-69
2021/05/14 12:54:57;;;;;;;1.30;1.00;;;19.10;92.90;;;;;;5061910;28;20462;-69
2021/05/14 12:57:27;;;;;;;1.53;0.90;;;19.00;93.70;;;;;;5067762;28;20467;-70
2021/05/14 12:59:53;;;;;;;1.90;1.03;;;18.80;94.60;;;;;;5071376;28;20493;-70